sensor_id;sensor_type;location;lat;lon;timestamp;P1;durP1;ratioP1;P2;durP2;ratioP2
26271;SDS011;13997;48.902;12.472;2023-11-21T00:01:53;12.02;;;6.43;;
26271;SDS011;13997;48.902;12.472;2023-11-21T00:04:19;23.00;;;8.38;;
26271;SDS011;13997;48.902;12.472;2023-11-21T00:06:45;12.75;;;4.68;;
26271;SDS011;13997;48.902;12.472;2023-11-21T00:09:12;6.90;;;2.78;;
26271;SDS011;13997;48.902;12.472;2023-11-21T00:11:40;7.22;;;3.28;;
26271;SDS011;13997;48.902;12.472;2023-11-21T00:14:06;23.13;;;10.05;;
26271;SDS011;13997;48.902;12.472;2023-11-21T00:16:33;31.90;;;11.05;;
26271;SDS011;13997;48.902;12.472;2023-11-21T00:18:59;23.50;;;7.28;;
26271;SDS011;13997;48.902;12.472;2023-11-21T00:21:25;52.58;;;14.20;;
26271;SDS011;13997;48.902;12.472;2023-11-21T00:23:50;79.82;;;21.30;;
26271;SDS011;13997;48.902;12.472;2023-11-21T00:26:16;71.68;;;15.43;;
26271;SDS011;13997;48.902;12.472;2023-11-21T00:28:42;52.05;;;12.77;;
26271;SDS011;13997;48.902;12.472;2023-11-21T00:31:08;31.92;;;9.55;;
26271;SDS011;13997;48.902;12.472;2023-11-21T00:33:33;15.13;;;4.00;;
26271;SDS011;13997;48.902;12.472;2023-11-21T00:35:59;15.00;;;4.25;;
26271;SDS011;13997;48.902;12.472;2023-11-21T00:38:25;8.25;;;2.50;;
26271;SDS011;13997;48.902;12.472;2023-11-21T00:40:52;6.97;;;3.03;;
26271;SDS011;13997;48.902;12.472;2023-11-21T00:43:21;6.50;;;2.78;;
26271;SDS011;13997;48.902;12.472;2023-11-21T00:45:49;4.97;;;2.90;;
26271;SDS011;13997;48.902;12.472;2023-11-21T00:48:15;8.70;;;2.92;;
26271;SDS011;13997;48.902;12.472;2023-11-21T00:50:40;6.93;;;2.53;;
26271;SDS011;13997;48.902;12.472;2023-11-21T00:53:06;6.13;;;2.85;;
26271;SDS011;13997;48.902;12.472;2023-11-21T00:55:32;6.75;;;2.97;;
26271;SDS011;13997;48.902;12.472;2023-11-21T00:57:58;10.18;;;3.50;;
26271;SDS011;13997;48.902;12.472;2023-11-21T01:00:24;5.85;;;2.83;;
26271;SDS011;13997;48.902;12.472;2023-11-21T01:02:50;9.32;;;2.83;;
26271;SDS011;13997;48.902;12.472;2023-11-21T01:05:16;6.70;;;2.78;;
26271;SDS011;13997;48.902;12.472;2023-11-21T01:07:42;7.68;;;2.70;;
26271;SDS011;13997;48.902;12.472;2023-11-21T01:10:08;7.78;;;2.80;;
26271;SDS011;13997;48.902;12.472;2023-11-21T01:12:35;10.30;;;2.53;;
26271;SDS011;13997;48.902;12.472;2023-11-21T01:15:02;4.40;;;2.28;;
26271;SDS011;13997;48.902;12.472;2023-11-21T01:17:29;5.35;;;2.50;;
26271;SDS011;13997;48.902;12.472;2023-11-21T01:19:54;9.52;;;2.97;;
26271;SDS011;13997;48.902;12.472;2023-11-21T01:22:21;6.80;;;3.03;;
26271;SDS011;13997;48.902;12.472;2023-11-21T01:24:50;12.95;;;5.15;;
26271;SDS011;13997;48.902;12.472;2023-11-21T01:27:19;13.40;;;4.55;;
26271;SDS011;13997;48.902;12.472;2023-11-21T01:29:45;11.07;;;4.32;;
26271;SDS011;13997;48.902;12.472;2023-11-21T01:32:11;11.90;;;4.45;;
26271;SDS011;13997;48.902;12.472;2023-11-21T01:34:36;11.75;;;3.65;;
26271;SDS011;13997;48.902;12.472;2023-11-21T01:37:02;5.28;;;2.95;;
26271;SDS011;13997;48.902;12.472;2023-11-21T01:39:30;7.90;;;2.60;;
26271;SDS011;13997;48.902;12.472;2023-11-21T01:41:56;3.78;;;2.10;;
26271;SDS011;13997;48.902;12.472;2023-11-21T01:44:26;11.30;;;2.88;;
26271;SDS011;13997;48.902;12.472;2023-11-21T01:46:52;8.07;;;2.55;;
26271;SDS011;13997;48.902;12.472;2023-11-21T01:49:18;6.45;;;2.58;;
26271;SDS011;13997;48.902;12.472;2023-11-21T01:51:46;9.15;;;2.92;;
26271;SDS011;13997;48.902;12.472;2023-11-21T01:54:15;7.72;;;2.85;;
26271;SDS011;13997;48.902;12.472;2023-11-21T01:56:42;8.45;;;2.97;;
26271;SDS011;13997;48.902;12.472;2023-11-21T01:59:10;7.50;;;2.72;;
26271;SDS011;13997;48.902;12.472;2023-11-21T02:01:39;8.52;;;2.58;;
26271;SDS011;13997;48.902;12.472;2023-11-21T02:04:06;8.65;;;3.03;;
26271;SDS011;13997;48.902;12.472;2023-11-21T02:06:33;13.05;;;2.92;;
26271;SDS011;13997;48.902;12.472;2023-11-21T02:08:59;6.53;;;3.10;;
26271;SDS011;13997;48.902;12.472;2023-11-21T02:11:25;6.18;;;2.72;;
26271;SDS011;13997;48.902;12.472;2023-11-21T02:13:52;7.80;;;2.85;;
26271;SDS011;13997;48.902;12.472;2023-11-21T02:16:19;5.72;;;3.03;;
26271;SDS011;13997;48.902;12.472;2023-11-21T02:18:46;11.48;;;3.10;;
26271;SDS011;13997;48.902;12.472;2023-11-21T02:21:13;4.13;;;2.42;;
26271;SDS011;13997;48.902;12.472;2023-11-21T02:23:39;6.45;;;2.75;;
26271;SDS011;13997;48.902;12.472;2023-11-21T02:26:09;4.93;;;2.35;;
26271;SDS011;13997;48.902;12.472;2023-11-21T02:28:35;9.98;;;2.88;;
26271;SDS011;13997;48.902;12.472;2023-11-21T02:31:01;9.52;;;2.88;;
26271;SDS011;13997;48.902;12.472;2023-11-21T02:33:29;10.30;;;3.10;;
26271;SDS011;13997;48.902;12.472;2023-11-21T02:35:58;9.63;;;2.70;;
26271;SDS011;13997;48.902;12.472;2023-11-21T02:38:27;6.38;;;2.75;;
26271;SDS011;13997;48.902;12.472;2023-11-21T02:40:53;8.23;;;3.38;;
26271;SDS011;13997;48.902;12.472;2023-11-21T02:43:19;8.50;;;2.53;;
26271;SDS011;13997;48.902;12.472;2023-11-21T02:45:44;4.95;;;2.88;;
26271;SDS011;13997;48.902;12.472;2023-11-21T02:48:10;7.18;;;2.97;;
26271;SDS011;13997;48.902;12.472;2023-11-21T02:50:36;4.95;;;2.80;;
26271;SDS011;13997;48.902;12.472;2023-11-21T02:53:02;9.55;;;2.85;;
26271;SDS011;13997;48.902;12.472;2023-11-21T02:55:30;8.27;;;2.90;;
26271;SDS011;13997;48.902;12.472;2023-11-21T02:57:59;10.20;;;2.97;;
26271;SDS011;13997;48.902;12.472;2023-11-21T03:00:26;6.93;;;3.75;;
26271;SDS011;13997;48.902;12.472;2023-11-21T03:02:51;9.57;;;3.70;;
26271;SDS011;13997;48.902;12.472;2023-11-21T03:05:18;6.90;;;3.95;;
26271;SDS011;13997;48.902;12.472;2023-11-21T03:07:44;5.32;;;3.33;;
26271;SDS011;13997;48.902;12.472;2023-11-21T03:10:09;9.27;;;3.10;;
26271;SDS011;13997;48.902;12.472;2023-11-21T03:12:36;11.30;;;5.18;;
26271;SDS011;13997;48.902;12.472;2023-11-21T03:15:05;8.60;;;3.30;;
26271;SDS011;13997;48.902;12.472;2023-11-21T03:17:31;9.13;;;3.83;;
26271;SDS011;13997;48.902;12.472;2023-11-21T03:19:58;13.95;;;4.07;;
26271;SDS011;13997;48.902;12.472;2023-11-21T03:22:24;5.78;;;3.17;;
26271;SDS011;13997;48.902;12.472;2023-11-21T03:24:50;6.43;;;2.97;;
26271;SDS011;13997;48.902;12.472;2023-11-21T03:27:16;8.48;;;3.00;;
26271;SDS011;13997;48.902;12.472;2023-11-21T03:29:41;9.02;;;3.45;;
26271;SDS011;13997;48.902;12.472;2023-11-21T03:32:07;6.80;;;3.03;;
26271;SDS011;13997;48.902;12.472;2023-11-21T03:34:32;8.15;;;3.13;;
26271;SDS011;13997;48.902;12.472;2023-11-21T03:36:58;5.32;;;2.80;;
26271;SDS011;13997;48.902;12.472;2023-11-21T03:39:24;6.53;;;3.10;;
26271;SDS011;13997;48.902;12.472;2023-11-21T03:41:50;8.07;;;3.30;;
26271;SDS011;13997;48.902;12.472;2023-11-21T03:44:17;11.43;;;3.70;;
26271;SDS011;13997;48.902;12.472;2023-11-21T03:46:43;7.93;;;3.97;;
26271;SDS011;13997;48.902;12.472;2023-11-21T03:49:09;8.38;;;5.68;;
26271;SDS011;13997;48.902;12.472;2023-11-21T03:51:35;11.48;;;7.15;;
26271;SDS011;13997;48.902;12.472;2023-11-21T03:54:01;9.65;;;3.88;;
26271;SDS011;13997;48.902;12.472;2023-11-21T03:56:28;8.77;;;2.97;;
26271;SDS011;13997;48.902;12.472;2023-11-21T03:58:53;4.70;;;3.13;;
26271;SDS011;13997;48.902;12.472;2023-11-21T04:01:23;10.48;;;3.67;;
26271;SDS011;13997;48.902;12.472;2023-11-21T04:03:49;10.07;;;4.40;;
26271;SDS011;13997;48.902;12.472;2023-11-21T04:06:16;9.77;;;3.95;;
26271;SDS011;13997;48.902;12.472;2023-11-21T04:08:42;7.25;;;3.72;;
26271;SDS011;13997;48.902;12.472;2023-11-21T04:11:09;9.73;;;3.88;;
26271;SDS011;13997;48.902;12.472;2023-11-21T04:13:37;6.20;;;4.03;;
26271;SDS011;13997;48.902;12.472;2023-11-21T04:16:04;10.98;;;4.78;;
26271;SDS011;13997;48.902;12.472;2023-11-21T04:18:31;6.50;;;3.38;;
26271;SDS011;13997;48.902;12.472;2023-11-21T04:20:56;8.05;;;3.40;;
26271;SDS011;13997;48.902;12.472;2023-11-21T04:23:22;9.52;;;3.10;;
26271;SDS011;13997;48.902;12.472;2023-11-21T04:25:47;7.28;;;2.90;;
26271;SDS011;13997;48.902;12.472;2023-11-21T04:28:13;9.70;;;3.22;;
26271;SDS011;13997;48.902;12.472;2023-11-21T04:30:38;8.20;;;3.50;;
26271;SDS011;13997;48.902;12.472;2023-11-21T04:33:04;9.68;;;2.65;;
26271;SDS011;13997;48.902;12.472;2023-11-21T04:35:30;7.47;;;2.67;;
26271;SDS011;13997;48.902;12.472;2023-11-21T04:37:55;6.13;;;2.78;;
26271;SDS011;13997;48.902;12.472;2023-11-21T04:40:22;6.45;;;2.45;;
26271;SDS011;13997;48.902;12.472;2023-11-21T04:42:48;9.55;;;2.58;;
26271;SDS011;13997;48.902;12.472;2023-11-21T04:45:13;5.57;;;2.33;;
26271;SDS011;13997;48.902;12.472;2023-11-21T04:47:39;8.05;;;2.60;;
26271;SDS011;13997;48.902;12.472;2023-11-21T04:50:05;51.92;;;22.65;;
26271;SDS011;13997;48.902;12.472;2023-11-21T05:19:28;5.80;;;2.50;;
26271;SDS011;13997;48.902;12.472;2023-11-21T05:21:54;6.40;;;2.25;;
26271;SDS011;13997;48.902;12.472;2023-11-21T05:24:19;4.20;;;2.30;;
26271;SDS011;13997;48.902;12.472;2023-11-21T05:26:45;6.32;;;2.50;;
26271;SDS011;13997;48.902;12.472;2023-11-21T05:29:11;9.45;;;3.10;;
26271;SDS011;13997;48.902;12.472;2023-11-21T05:31:36;7.20;;;2.53;;
26271;SDS011;13997;48.902;12.472;2023-11-21T05:34:03;4.53;;;2.03;;
26271;SDS011;13997;48.902;12.472;2023-11-21T05:36:30;7.07;;;2.55;;
26271;SDS011;13997;48.902;12.472;2023-11-21T05:38:55;5.15;;;2.90;;
26271;SDS011;13997;48.902;12.472;2023-11-21T05:41:21;8.30;;;3.83;;
26271;SDS011;13997;48.902;12.472;2023-11-21T05:43:47;7.75;;;4.00;;
26271;SDS011;13997;48.902;12.472;2023-11-21T05:46:13;6.18;;;3.65;;
26271;SDS011;13997;48.902;12.472;2023-11-21T05:48:38;4.75;;;3.22;;
26271;SDS011;13997;48.902;12.472;2023-11-21T05:51:06;8.73;;;3.88;;
26271;SDS011;13997;48.902;12.472;2023-11-21T05:53:33;22.30;;;8.10;;
26271;SDS011;13997;48.902;12.472;2023-11-21T05:55:59;20.75;;;7.68;;
26271;SDS011;13997;48.902;12.472;2023-11-21T05:58:25;13.15;;;4.75;;
26271;SDS011;13997;48.902;12.472;2023-11-21T06:00:50;7.10;;;3.00;;
26271;SDS011;13997;48.902;12.472;2023-11-21T06:03:16;10.70;;;3.95;;
26271;SDS011;13997;48.902;12.472;2023-11-21T06:05:42;9.50;;;4.47;;
26271;SDS011;13997;48.902;12.472;2023-11-21T06:08:08;16.80;;;7.10;;
26271;SDS011;13997;48.902;12.472;2023-11-21T06:10:35;15.23;;;4.78;;
26271;SDS011;13997;48.902;12.472;2023-11-21T06:13:01;11.68;;;5.22;;
26271;SDS011;13997;48.902;12.472;2023-11-21T06:15:28;12.25;;;4.75;;
26271;SDS011;13997;48.902;12.472;2023-11-21T06:17:54;12.05;;;3.67;;
26271;SDS011;13997;48.902;12.472;2023-11-21T06:20:20;10.23;;;3.47;;
26271;SDS011;13997;48.902;12.472;2023-11-21T06:22:48;8.07;;;3.03;;
26271;SDS011;13997;48.902;12.472;2023-11-21T06:25:15;6.65;;;3.40;;
26271;SDS011;13997;48.902;12.472;2023-11-21T06:27:44;8.63;;;2.97;;
26271;SDS011;13997;48.902;12.472;2023-11-21T06:30:11;10.05;;;3.20;;
26271;SDS011;13997;48.902;12.472;2023-11-21T06:32:38;9.77;;;3.10;;
26271;SDS011;13997;48.902;12.472;2023-11-21T06:35:07;9.10;;;3.22;;
26271;SDS011;13997;48.902;12.472;2023-11-21T06:37:36;9.32;;;3.50;;
26271;SDS011;13997;48.902;12.472;2023-11-21T06:40:02;8.75;;;3.50;;
26271;SDS011;13997;48.902;12.472;2023-11-21T06:42:33;6.85;;;3.00;;
26271;SDS011;13997;48.902;12.472;2023-11-21T06:44:58;6.68;;;3.00;;
26271;SDS011;13997;48.902;12.472;2023-11-21T06:47:24;9.32;;;3.42;;
26271;SDS011;13997;48.902;12.472;2023-11-21T06:49:53;7.95;;;3.42;;
26271;SDS011;13997;48.902;12.472;2023-11-21T06:52:19;7.32;;;3.60;;
26271;SDS011;13997;48.902;12.472;2023-11-21T06:54:45;9.95;;;4.68;;
26271;SDS011;13997;48.902;12.472;2023-11-21T06:57:12;17.13;;;5.82;;
26271;SDS011;13997;48.902;12.472;2023-11-21T06:59:38;9.27;;;3.20;;
26271;SDS011;13997;48.902;12.472;2023-11-21T07:02:04;11.05;;;3.65;;
26271;SDS011;13997;48.902;12.472;2023-11-21T07:04:31;14.50;;;3.80;;
26271;SDS011;13997;48.902;12.472;2023-11-21T07:06:58;8.93;;;4.40;;
26271;SDS011;13997;48.902;12.472;2023-11-21T07:09:23;7.88;;;4.28;;
26271;SDS011;13997;48.902;12.472;2023-11-21T07:11:50;11.68;;;4.85;;
26271;SDS011;13997;48.902;12.472;2023-11-21T07:14:17;8.85;;;3.95;;
26271;SDS011;13997;48.902;12.472;2023-11-21T07:16:44;6.07;;;3.40;;
26271;SDS011;13997;48.902;12.472;2023-11-21T07:19:10;44.53;;;11.68;;
26271;SDS011;13997;48.902;12.472;2023-11-21T07:21:37;26.33;;;6.80;;
26271;SDS011;13997;48.902;12.472;2023-11-21T07:24:04;11.65;;;4.68;;
26271;SDS011;13997;48.902;12.472;2023-11-21T07:26:34;16.88;;;4.78;;
26271;SDS011;13997;48.902;12.472;2023-11-21T07:29:00;11.23;;;3.83;;
26271;SDS011;13997;48.902;12.472;2023-11-21T07:31:27;12.25;;;4.32;;
26271;SDS011;13997;48.902;12.472;2023-11-21T07:33:54;11.32;;;4.88;;
26271;SDS011;13997;48.902;12.472;2023-11-21T07:36:22;11.25;;;4.57;;
26271;SDS011;13997;48.902;12.472;2023-11-21T07:38:48;15.25;;;5.55;;
26271;SDS011;13997;48.902;12.472;2023-11-21T07:41:14;14.98;;;7.82;;
26271;SDS011;13997;48.902;12.472;2023-11-21T07:43:41;9.68;;;4.82;;
26271;SDS011;13997;48.902;12.472;2023-11-21T07:46:07;8.25;;;3.90;;
26271;SDS011;13997;48.902;12.472;2023-11-21T07:48:33;13.20;;;3.47;;
26271;SDS011;13997;48.902;12.472;2023-11-21T07:51:00;6.57;;;3.08;;
26271;SDS011;13997;48.902;12.472;2023-11-21T07:53:27;6.78;;;3.42;;
26271;SDS011;13997;48.902;12.472;2023-11-21T07:55:55;9.13;;;3.03;;
26271;SDS011;13997;48.902;12.472;2023-11-21T07:58:21;7.28;;;3.70;;
26271;SDS011;13997;48.902;12.472;2023-11-21T08:00:47;10.52;;;3.65;;
26271;SDS011;13997;48.902;12.472;2023-11-21T08:03:13;19.35;;;8.75;;
26271;SDS011;13997;48.902;12.472;2023-11-21T08:05:39;21.40;;;9.90;;
26271;SDS011;13997;48.902;12.472;2023-11-21T08:08:05;15.27;;;7.50;;
26271;SDS011;13997;48.902;12.472;2023-11-21T08:10:31;11.57;;;4.32;;
26271;SDS011;13997;48.902;12.472;2023-11-21T08:12:56;14.43;;;3.70;;
26271;SDS011;13997;48.902;12.472;2023-11-21T08:15:23;6.10;;;3.38;;
26271;SDS011;13997;48.902;12.472;2023-11-21T08:17:49;9.43;;;3.83;;
26271;SDS011;13997;48.902;12.472;2023-11-21T08:20:14;8.75;;;3.33;;
26271;SDS011;13997;48.902;12.472;2023-11-21T08:22:41;9.38;;;3.58;;
26271;SDS011;13997;48.902;12.472;2023-11-21T08:25:07;8.02;;;3.30;;
26271;SDS011;13997;48.902;12.472;2023-11-21T08:27:33;6.78;;;3.13;;
26271;SDS011;13997;48.902;12.472;2023-11-21T08:30:00;9.65;;;3.30;;
26271;SDS011;13997;48.902;12.472;2023-11-21T08:32:28;7.65;;;3.35;;
26271;SDS011;13997;48.902;12.472;2023-11-21T08:34:58;19.95;;;5.47;;
26271;SDS011;13997;48.902;12.472;2023-11-21T08:37:24;7.05;;;3.28;;
26271;SDS011;13997;48.902;12.472;2023-11-21T08:39:52;8.02;;;3.10;;
26271;SDS011;13997;48.902;12.472;2023-11-21T08:42:18;6.63;;;3.35;;
26271;SDS011;13997;48.902;12.472;2023-11-21T08:44:44;5.43;;;2.78;;
26271;SDS011;13997;48.902;12.472;2023-11-21T08:47:10;10.43;;;3.13;;
26271;SDS011;13997;48.902;12.472;2023-11-21T08:49:36;8.55;;;2.55;;
26271;SDS011;13997;48.902;12.472;2023-11-21T08:52:03;11.65;;;3.30;;
26271;SDS011;13997;48.902;12.472;2023-11-21T08:54:30;8.27;;;2.95;;
26271;SDS011;13997;48.902;12.472;2023-11-21T08:56:56;10.52;;;2.85;;
26271;SDS011;13997;48.902;12.472;2023-11-21T08:59:23;6.63;;;2.88;;
26271;SDS011;13997;48.902;12.472;2023-11-21T09:01:51;8.05;;;2.75;;
26271;SDS011;13997;48.902;12.472;2023-11-21T09:04:17;12.23;;;3.50;;
26271;SDS011;13997;48.902;12.472;2023-11-21T09:06:43;6.07;;;2.65;;
26271;SDS011;13997;48.902;12.472;2023-11-21T09:09:08;6.20;;;2.20;;
26271;SDS011;13997;48.902;12.472;2023-11-21T09:11:35;3.47;;;2.08;;
26271;SDS011;13997;48.902;12.472;2023-11-21T09:14:01;7.13;;;2.35;;
26271;SDS011;13997;48.902;12.472;2023-11-21T09:16:28;4.13;;;1.88;;
26271;SDS011;13997;48.902;12.472;2023-11-21T09:18:54;3.45;;;2.00;;
26271;SDS011;13997;48.902;12.472;2023-11-21T09:21:19;7.88;;;2.80;;
26271;SDS011;13997;48.902;12.472;2023-11-21T09:23:45;5.45;;;2.58;;
26271;SDS011;13997;48.902;12.472;2023-11-21T09:26:11;4.57;;;2.03;;
26271;SDS011;13997;48.902;12.472;2023-11-21T09:28:37;7.13;;;2.15;;
26271;SDS011;13997;48.902;12.472;2023-11-21T09:31:03;4.93;;;2.28;;
26271;SDS011;13997;48.902;12.472;2023-11-21T09:33:34;7.32;;;2.50;;
26271;SDS011;13997;48.902;12.472;2023-11-21T09:35:59;7.80;;;2.95;;
26271;SDS011;13997;48.902;12.472;2023-11-21T09:38:26;3.95;;;2.20;;
26271;SDS011;13997;48.902;12.472;2023-11-21T09:40:53;5.60;;;2.33;;
26271;SDS011;13997;48.902;12.472;2023-11-21T09:43:20;5.53;;;2.10;;
26271;SDS011;13997;48.902;12.472;2023-11-21T09:45:47;5.70;;;2.80;;
26271;SDS011;13997;48.902;12.472;2023-11-21T09:48:19;8.73;;;3.03;;
26271;SDS011;13997;48.902;12.472;2023-11-21T09:50:47;6.50;;;3.00;;
26271;SDS011;13997;48.902;12.472;2023-11-21T09:53:22;9.93;;;3.30;;
26271;SDS011;13997;48.902;12.472;2023-11-21T09:55:50;5.18;;;2.53;;
26271;SDS011;13997;48.902;12.472;2023-11-21T09:58:17;7.55;;;2.75;;
26271;SDS011;13997;48.902;12.472;2023-11-21T10:00:47;8.27;;;3.03;;
26271;SDS011;13997;48.902;12.472;2023-11-21T10:03:14;5.43;;;2.78;;
26271;SDS011;13997;48.902;12.472;2023-11-21T10:05:42;4.75;;;2.75;;
26271;SDS011;13997;48.902;12.472;2023-11-21T10:08:10;8.70;;;2.97;;
26271;SDS011;13997;48.902;12.472;2023-11-21T10:10:37;8.02;;;3.38;;
26271;SDS011;13997;48.902;12.472;2023-11-21T10:13:11;8.52;;;2.90;;
26271;SDS011;13997;48.902;12.472;2023-11-21T10:15:41;13.90;;;3.15;;
26271;SDS011;13997;48.902;12.472;2023-11-21T10:18:13;5.22;;;2.70;;
26271;SDS011;13997;48.902;12.472;2023-11-21T10:20:40;10.18;;;3.38;;
26271;SDS011;13997;48.902;12.472;2023-11-21T10:23:07;8.63;;;2.97;;
26271;SDS011;13997;48.902;12.472;2023-11-21T10:25:36;13.05;;;4.00;;
26271;SDS011;13997;48.902;12.472;2023-11-21T10:28:02;6.47;;;3.38;;
26271;SDS011;13997;48.902;12.472;2023-11-21T10:30:35;8.82;;;3.13;;
26271;SDS011;13997;48.902;12.472;2023-11-21T10:33:02;8.67;;;3.03;;
26271;SDS011;13997;48.902;12.472;2023-11-21T10:38:07;7.00;;;2.92;;
26271;SDS011;13997;48.902;12.472;2023-11-21T10:40:38;6.78;;;3.13;;
26271;SDS011;13997;48.902;12.472;2023-11-21T10:43:07;9.30;;;3.75;;
26271;SDS011;13997;48.902;12.472;2023-11-21T10:45:34;11.90;;;3.72;;
26271;SDS011;13997;48.902;12.472;2023-11-21T10:48:04;10.20;;;3.58;;
26271;SDS011;13997;48.902;12.472;2023-11-21T10:50:32;13.35;;;3.65;;
26271;SDS011;13997;48.902;12.472;2023-11-21T10:53:00;8.23;;;4.28;;
26271;SDS011;13997;48.902;12.472;2023-11-21T10:55:27;8.55;;;3.90;;
26271;SDS011;13997;48.902;12.472;2023-11-21T10:57:53;8.55;;;4.20;;
26271;SDS011;13997;48.902;12.472;2023-11-21T11:00:20;8.93;;;3.65;;
26271;SDS011;13997;48.902;12.472;2023-11-21T11:02:51;6.30;;;3.30;;
26271;SDS011;13997;48.902;12.472;2023-11-21T11:05:19;8.93;;;3.50;;
26271;SDS011;13997;48.902;12.472;2023-11-21T11:07:56;8.43;;;3.63;;
26271;SDS011;13997;48.902;12.472;2023-11-21T11:10:34;9.98;;;4.22;;
26271;SDS011;13997;48.902;12.472;2023-11-21T11:13:01;5.53;;;3.50;;
26271;SDS011;13997;48.902;12.472;2023-11-21T11:15:27;9.20;;;4.43;;
26271;SDS011;13997;48.902;12.472;2023-11-21T11:17:53;7.88;;;4.05;;
26271;SDS011;13997;48.902;12.472;2023-11-21T11:20:23;9.75;;;3.85;;
26271;SDS011;13997;48.902;12.472;2023-11-21T11:28:33;9.32;;;3.97;;
26271;SDS011;13997;48.902;12.472;2023-11-21T11:31:17;8.65;;;3.80;;
26271;SDS011;13997;48.902;12.472;2023-11-21T11:33:53;12.38;;;4.65;;
26271;SDS011;13997;48.902;12.472;2023-11-21T11:39:28;6.85;;;3.28;;
26271;SDS011;13997;48.902;12.472;2023-11-21T11:42:06;8.20;;;3.50;;
26271;SDS011;13997;48.902;12.472;2023-11-21T11:47:44;7.75;;;3.50;;
26271;SDS011;13997;48.902;12.472;2023-11-21T11:50:08;12.73;;;4.07;;
26271;SDS011;13997;48.902;12.472;2023-11-21T11:52:45;5.05;;;2.88;;
26271;SDS011;13997;48.902;12.472;2023-11-21T11:55:12;7.78;;;3.08;;
26271;SDS011;13997;48.902;12.472;2023-11-21T11:57:43;5.45;;;2.78;;
26271;SDS011;13997;48.902;12.472;2023-11-21T12:00:10;5.35;;;2.70;;
26271;SDS011;13997;48.902;12.472;2023-11-21T12:02:39;4.90;;;2.53;;
26271;SDS011;13997;48.902;12.472;2023-11-21T12:05:08;5.63;;;3.10;;
26271;SDS011;13997;48.902;12.472;2023-11-21T12:07:42;6.28;;;3.45;;
26271;SDS011;13997;48.902;12.472;2023-11-21T12:10:16;7.68;;;2.95;;
26271;SDS011;13997;48.902;12.472;2023-11-21T12:12:43;5.15;;;2.95;;
26271;SDS011;13997;48.902;12.472;2023-11-21T12:15:11;10.15;;;3.10;;
26271;SDS011;13997;48.902;12.472;2023-11-21T12:17:37;8.88;;;2.95;;
26271;SDS011;13997;48.902;12.472;2023-11-21T12:20:04;5.53;;;2.70;;
26271;SDS011;13997;48.902;12.472;2023-11-21T12:22:39;5.25;;;2.95;;
26271;SDS011;13997;48.902;12.472;2023-11-21T12:25:08;6.30;;;2.67;;
26271;SDS011;13997;48.902;12.472;2023-11-21T12:27:34;7.07;;;3.17;;
26271;SDS011;13997;48.902;12.472;2023-11-21T12:30:00;7.13;;;2.70;;
26271;SDS011;13997;48.902;12.472;2023-11-21T12:32:25;7.18;;;2.53;;
26271;SDS011;13997;48.902;12.472;2023-11-21T12:34:51;3.90;;;2.40;;
26271;SDS011;13997;48.902;12.472;2023-11-21T12:37:17;9.93;;;3.60;;
26271;SDS011;13997;48.902;12.472;2023-11-21T12:39:43;4.57;;;2.47;;
26271;SDS011;13997;48.902;12.472;2023-11-21T12:42:09;4.35;;;2.92;;
26271;SDS011;13997;48.902;12.472;2023-11-21T12:44:35;7.80;;;3.08;;
26271;SDS011;13997;48.902;12.472;2023-11-21T12:47:02;5.75;;;3.00;;
26271;SDS011;13997;48.902;12.472;2023-11-21T12:49:28;4.47;;;2.85;;
26271;SDS011;13997;48.902;12.472;2023-11-21T12:51:54;6.25;;;2.92;;
26271;SDS011;13997;48.902;12.472;2023-11-21T12:54:19;8.85;;;3.03;;
26271;SDS011;13997;48.902;12.472;2023-11-21T12:56:45;12.48;;;4.10;;
26271;SDS011;13997;48.902;12.472;2023-11-21T12:59:14;9.98;;;3.90;;
26271;SDS011;13997;48.902;12.472;2023-11-21T13:01:44;13.73;;;5.50;;
26271;SDS011;13997;48.902;12.472;2023-11-21T13:04:11;16.45;;;6.30;;
26271;SDS011;13997;48.902;12.472;2023-11-21T13:06:36;12.23;;;4.53;;
26271;SDS011;13997;48.902;12.472;2023-11-21T13:09:06;13.23;;;5.28;;
26271;SDS011;13997;48.902;12.472;2023-11-21T13:11:36;12.45;;;6.88;;
26271;SDS011;13997;48.902;12.472;2023-11-21T13:14:02;15.88;;;5.32;;
26271;SDS011;13997;48.902;12.472;2023-11-21T13:16:28;6.93;;;3.60;;
26271;SDS011;13997;48.902;12.472;2023-11-21T13:18:55;12.38;;;5.15;;
26271;SDS011;13997;48.902;12.472;2023-11-21T13:21:21;10.07;;;4.38;;
26271;SDS011;13997;48.902;12.472;2023-11-21T13:23:47;20.38;;;6.65;;
26271;SDS011;13997;48.902;12.472;2023-11-21T13:26:15;13.27;;;6.10;;
26271;SDS011;13997;48.902;12.472;2023-11-21T13:28:41;18.60;;;7.38;;
26271;SDS011;13997;48.902;12.472;2023-11-21T13:31:11;10.85;;;4.88;;
26271;SDS011;13997;48.902;12.472;2023-11-21T13:33:47;5.65;;;3.03;;
26271;SDS011;13997;48.902;12.472;2023-11-21T13:36:23;10.15;;;4.35;;
26271;SDS011;13997;48.902;12.472;2023-11-21T13:38:50;9.10;;;4.00;;
26271;SDS011;13997;48.902;12.472;2023-11-21T13:41:18;13.13;;;4.95;;
26271;SDS011;13997;48.902;12.472;2023-11-21T13:43:44;10.48;;;5.03;;
26271;SDS011;13997;48.902;12.472;2023-11-21T13:46:18;9.10;;;3.70;;
26271;SDS011;13997;48.902;12.472;2023-11-21T13:48:47;8.52;;;3.40;;
26271;SDS011;13997;48.902;12.472;2023-11-21T13:51:20;14.48;;;6.60;;
26271;SDS011;13997;48.902;12.472;2023-11-21T13:54:09;12.18;;;5.00;;
26271;SDS011;13997;48.902;12.472;2023-11-21T13:56:35;8.63;;;3.55;;
26271;SDS011;13997;48.902;12.472;2023-11-21T13:59:02;25.52;;;10.23;;
26271;SDS011;13997;48.902;12.472;2023-11-21T14:01:57;15.15;;;7.57;;
26271;SDS011;13997;48.902;12.472;2023-11-21T14:05:20;19.00;;;8.50;;
26271;SDS011;13997;48.902;12.472;2023-11-21T14:07:54;22.73;;;8.30;;
26271;SDS011;13997;48.902;12.472;2023-11-21T14:10:21;25.33;;;9.48;;
26271;SDS011;13997;48.902;12.472;2023-11-21T14:12:49;22.00;;;8.80;;
26271;SDS011;13997;48.902;12.472;2023-11-21T14:15:15;13.82;;;6.78;;
26271;SDS011;13997;48.902;12.472;2023-11-21T14:17:44;15.32;;;8.13;;
26271;SDS011;13997;48.902;12.472;2023-11-21T14:20:10;22.08;;;9.63;;
26271;SDS011;13997;48.902;12.472;2023-11-21T14:22:41;24.05;;;12.45;;
26271;SDS011;13997;48.902;12.472;2023-11-21T14:25:07;21.95;;;12.30;;
26271;SDS011;13997;48.902;12.472;2023-11-21T14:27:32;15.93;;;8.00;;
26271;SDS011;13997;48.902;12.472;2023-11-21T14:29:58;16.80;;;7.70;;
26271;SDS011;13997;48.902;12.472;2023-11-21T14:32:24;17.08;;;7.00;;
26271;SDS011;13997;48.902;12.472;2023-11-21T14:34:51;14.73;;;5.47;;
26271;SDS011;13997;48.902;12.472;2023-11-21T14:37:17;12.07;;;5.00;;
26271;SDS011;13997;48.902;12.472;2023-11-21T14:39:42;14.20;;;6.05;;
26271;SDS011;13997;48.902;12.472;2023-11-21T14:42:14;13.50;;;6.22;;
26271;SDS011;13997;48.902;12.472;2023-11-21T14:44:40;12.40;;;6.35;;
26271;SDS011;13997;48.902;12.472;2023-11-21T14:47:07;20.95;;;7.55;;
26271;SDS011;13997;48.902;12.472;2023-11-21T14:49:42;12.65;;;6.82;;
26271;SDS011;13997;48.902;12.472;2023-11-21T14:52:17;22.95;;;8.90;;
26271;SDS011;13997;48.902;12.472;2023-11-21T14:54:53;20.38;;;8.23;;
26271;SDS011;13997;48.902;12.472;2023-11-21T14:57:38;21.02;;;7.75;;
26271;SDS011;13997;48.902;12.472;2023-11-21T15:00:05;21.58;;;7.65;;
26271;SDS011;13997;48.902;12.472;2023-11-21T15:02:47;25.23;;;8.32;;
26271;SDS011;13997;48.902;12.472;2023-11-21T15:05:16;15.23;;;6.53;;
26271;SDS011;13997;48.902;12.472;2023-11-21T15:07:43;19.50;;;7.50;;
26271;SDS011;13997;48.902;12.472;2023-11-21T15:10:10;14.60;;;6.50;;
26271;SDS011;13997;48.902;12.472;2023-11-21T15:12:39;23.98;;;7.80;;